createdAt,value
2022-11-18T00:01:42.625Z,8.00
2022-11-18T00:04:12.302Z,7.90
2022-11-18T00:09:10.948Z,8.10
2022-11-18T00:11:56.627Z,8.20
2022-11-18T00:14:27.605Z,8.10
2022-11-18T00:16:57.620Z,8.20
2022-11-18T00:19:28.941Z,8.30
2022-11-18T00:21:57.790Z,8.40
2022-11-18T00:24:26.678Z,8.50
2022-11-18T00:26:55.802Z,8.50
2022-11-18T00:29:26.340Z,8.50
2022-11-18T00:31:57.977Z,8.30
2022-11-18T00:34:27.647Z,8.20
2022-11-18T00:36:56.062Z,8.30
2022-11-18T00:42:12.791Z,8.40
2022-11-18T00:44:41.173Z,8.40
2022-11-18T00:47:09.456Z,8.50
2022-11-18T00:49:39.182Z,8.50
2022-11-18T00:52:07.511Z,8.50
2022-11-18T00:54:36.017Z,8.50
2022-11-18T00:57:05.509Z,8.60
2022-11-18T00:59:34.528Z,7.40
2022-11-18T01:02:03.139Z,8.70
2022-11-18T01:04:31.557Z,8.70
2022-11-18T01:07:01.197Z,8.70
2022-11-18T01:09:31.898Z,8.60
2022-11-18T01:12:18.065Z,8.60
2022-11-18T01:14:46.573Z,8.60
2022-11-18T01:17:15.367Z,8.70
2022-11-18T01:19:43.584Z,8.90
2022-11-18T01:22:13.709Z,8.80
2022-11-18T01:27:10.991Z,8.80
2022-11-18T01:29:41.974Z,8.80
2022-11-18T01:32:24.571Z,8.80
2022-11-18T01:34:53.601Z,8.80
2022-11-18T01:37:23.159Z,8.50
2022-11-18T01:39:51.430Z,8.80
2022-11-18T01:42:19.957Z,8.90
2022-11-18T01:45:19.831Z,8.90
2022-11-18T01:50:40.334Z,9.10
2022-11-18T01:53:13.377Z,9.10
2022-11-18T01:55:46.014Z,9.10
2022-11-18T01:58:18.997Z,9.00
2022-11-18T02:00:47.190Z,9.00
2022-11-18T02:03:16.401Z,9.00
2022-11-18T02:05:46.812Z,9.20
2022-11-18T02:08:17.527Z,9.10
2022-11-18T02:10:46.099Z,8.90
2022-11-18T02:13:15.312Z,8.90
2022-11-18T02:15:52.468Z,8.80
2022-11-18T02:18:31.228Z,8.80
2022-11-18T02:21:13.798Z,8.80
2022-11-18T02:24:27.681Z,8.90
2022-11-18T02:27:42.435Z,9.00
2022-11-18T02:30:13.748Z,8.90
2022-11-18T02:32:46.574Z,8.90
2022-11-18T02:35:18.914Z,8.90
2022-11-18T02:37:50.836Z,8.90
2022-11-18T02:40:23.955Z,9.00
2022-11-18T02:42:57.605Z,9.00
2022-11-18T02:45:29.454Z,9.10
2022-11-18T02:48:00.957Z,9.20
2022-11-18T02:53:02.465Z,9.50
2022-11-18T02:55:36.805Z,9.70
2022-11-18T02:58:06.815Z,9.70
2022-11-18T03:00:39.214Z,9.80
2022-11-18T03:03:29.256Z,9.60
2022-11-18T03:06:08.879Z,9.80
2022-11-18T03:08:48.748Z,9.50
2022-11-18T03:11:20.841Z,9.60
2022-11-18T03:14:05.254Z,9.40
2022-11-18T03:16:39.989Z,9.60
2022-11-18T03:19:17.302Z,9.60
2022-11-18T03:21:53.449Z,9.50
2022-11-18T03:24:27.745Z,9.50
2022-11-18T03:27:06.000Z,9.40
2022-11-18T03:29:37.309Z,9.50
2022-11-18T03:32:11.648Z,9.50
2022-11-18T03:34:43.520Z,9.20
2022-11-18T03:37:15.085Z,9.20
2022-11-18T03:39:48.006Z,9.00
2022-11-18T03:42:20.845Z,9.10
2022-11-18T03:44:53.728Z,9.10
2022-11-18T03:47:29.890Z,9.10
2022-11-18T03:50:02.265Z,9.30
2022-11-18T03:52:34.662Z,9.10
2022-11-18T03:55:07.157Z,9.20
2022-11-18T03:57:45.050Z,9.40
2022-11-18T04:00:15.607Z,9.40
2022-11-18T04:02:47.075Z,9.40
2022-11-18T04:05:18.639Z,9.60
2022-11-18T04:07:55.506Z,9.50
2022-11-18T04:10:28.777Z,9.00
2022-11-18T04:13:06.367Z,8.90
2022-11-18T04:15:38.787Z,8.70
2022-11-18T04:18:11.454Z,8.70
2022-11-18T04:20:40.154Z,9.00
2022-11-18T04:23:09.214Z,8.80
2022-11-18T04:28:07.158Z,8.90
2022-11-18T04:30:35.824Z,8.90
2022-11-18T04:33:04.236Z,9.00
2022-11-18T04:35:36.169Z,9.00
2022-11-18T04:38:06.895Z,9.00
2022-11-18T04:40:35.408Z,9.00
2022-11-18T04:48:03.786Z,9.00
2022-11-18T04:50:32.387Z,9.00
2022-11-18T04:55:32.963Z,8.90
2022-11-18T04:58:01.326Z,8.90
2022-11-18T05:00:29.712Z,9.00
2022-11-18T05:02:57.960Z,9.00
2022-11-18T05:05:26.378Z,9.00
2022-11-18T05:07:54.564Z,8.90
2022-11-18T05:10:24.319Z,8.90
2022-11-18T05:12:52.584Z,9.00
2022-11-18T05:15:23.931Z,9.00
2022-11-18T05:17:52.465Z,8.90
2022-11-18T05:20:20.857Z,9.10
2022-11-18T05:22:49.043Z,9.00
2022-11-18T05:25:17.577Z,9.00
2022-11-18T05:30:15.906Z,9.00
2022-11-18T05:32:44.166Z,9.00
2022-11-18T05:35:12.630Z,9.10
2022-11-18T05:37:40.751Z,9.20
2022-11-18T05:40:10.701Z,9.20
2022-11-18T05:45:27.585Z,9.30
2022-11-18T05:48:01.459Z,9.30
2022-11-18T05:55:32.836Z,9.30
2022-11-18T05:58:01.058Z,9.40
2022-11-18T06:00:31.696Z,9.00
2022-11-18T06:03:01.740Z,9.10
2022-11-18T06:05:30.131Z,9.20
2022-11-18T06:07:59.438Z,9.10
2022-11-18T06:10:31.492Z,9.10
2022-11-18T06:13:04.054Z,9.10
2022-11-18T06:15:41.173Z,9.30
2022-11-18T06:18:12.633Z,9.30
2022-11-18T06:20:42.438Z,9.10
2022-11-18T06:23:15.064Z,9.10
2022-11-18T06:28:16.946Z,8.80
2022-11-18T06:33:17.256Z,8.80
2022-11-18T06:35:45.969Z,9.00
2022-11-18T06:38:14.169Z,9.60
2022-11-18T06:43:31.618Z,9.30
2022-11-18T06:46:19.859Z,9.20
2022-11-18T06:48:48.337Z,9.30
2022-11-18T06:54:00.913Z,9.30
2022-11-18T06:56:31.008Z,9.30
2022-11-18T06:59:00.272Z,9.30
2022-11-18T07:01:32.109Z,9.10
2022-11-18T07:04:01.822Z,9.00
2022-11-18T07:06:32.336Z,9.00
2022-11-18T07:09:05.237Z,9.00
2022-11-18T07:11:33.595Z,9.00
2022-11-18T07:14:02.334Z,9.00
2022-11-18T07:16:31.907Z,8.90
2022-11-18T07:21:30.518Z,9.00
2022-11-18T07:28:56.068Z,9.10
2022-11-18T07:31:24.277Z,8.90
2022-11-18T07:33:54.790Z,9.10
2022-11-18T07:36:24.890Z,10.00
2022-11-18T07:38:56.494Z,10.00
2022-11-18T07:41:29.739Z,10.10
2022-11-18T07:44:01.031Z,9.70
2022-11-18T07:46:35.033Z,9.60
2022-11-18T07:49:08.875Z,9.60
2022-11-18T07:51:39.469Z,9.80
2022-11-18T07:56:38.367Z,9.70
2022-11-18T07:59:07.341Z,9.60
2022-11-18T08:01:36.553Z,9.70
2022-11-18T08:04:11.695Z,9.60
2022-11-18T08:06:41.572Z,9.60
2022-11-18T08:09:11.025Z,9.50
2022-11-18T08:11:41.067Z,9.60
2022-11-18T08:14:09.526Z,9.50
2022-11-18T08:16:37.926Z,9.50
2022-11-18T08:19:07.973Z,9.60
2022-11-18T08:21:38.214Z,9.60
2022-11-18T08:24:11.907Z,9.80
2022-11-18T08:26:41.363Z,9.80
2022-11-18T08:31:41.336Z,9.70
2022-11-18T08:34:11.121Z,9.70
2022-11-18T08:36:40.415Z,9.60
2022-11-18T08:39:12.722Z,9.70
2022-11-18T08:41:42.772Z,9.70
2022-11-18T08:44:14.370Z,9.60
2022-11-18T08:46:46.190Z,9.60
2022-11-18T08:54:15.317Z,9.80
2022-11-18T08:56:44.169Z,9.80
2022-11-18T08:59:12.732Z,9.70
2022-11-18T09:01:42.078Z,9.60
2022-11-18T09:06:41.341Z,9.50
2022-11-18T09:09:10.342Z,9.80
2022-11-18T09:11:40.943Z,9.70
2022-11-18T09:22:19.890Z,10.10
2022-11-18T09:27:18.160Z,10.10
2022-11-18T09:29:52.022Z,10.10
2022-11-18T09:34:49.549Z,10.20
2022-11-18T09:37:29.437Z,10.20
2022-11-18T09:39:58.123Z,10.20
2022-11-18T09:42:47.453Z,10.20
2022-11-18T09:45:25.191Z,10.10
2022-11-18T09:47:59.864Z,10.10
2022-11-18T09:53:28.143Z,10.10
2022-11-18T09:56:04.228Z,10.10
2022-11-18T09:58:38.197Z,10.10
2022-11-18T10:01:14.039Z,10.40
2022-11-18T10:06:24.201Z,10.30
2022-11-18T10:09:14.878Z,10.20
2022-11-18T10:12:01.281Z,10.20
2022-11-18T10:14:42.879Z,10.30
2022-11-18T10:17:25.120Z,10.30
2022-11-18T10:20:01.458Z,10.20
2022-11-18T10:22:39.480Z,10.40
2022-11-18T10:25:17.993Z,10.40
2022-11-18T10:27:52.763Z,10.40
2022-11-18T10:35:30.203Z,10.30
2022-11-18T10:40:43.605Z,10.30
2022-11-18T10:43:35.958Z,10.40
2022-11-18T10:48:45.869Z,10.30
2022-11-18T10:51:25.346Z,10.30
2022-11-18T10:54:09.601Z,10.40
2022-11-18T10:56:57.584Z,10.50
2022-11-18T10:59:33.840Z,10.50
2022-11-18T11:02:13.623Z,10.50
2022-11-18T11:04:47.381Z,10.60
2022-11-18T11:07:28.038Z,10.60
2022-11-18T11:10:28.657Z,10.70
2022-11-18T11:13:02.557Z,10.80
2022-11-18T11:15:37.460Z,10.80
2022-11-18T11:18:29.845Z,10.90
2022-11-18T11:23:33.445Z,10.90
2022-11-18T11:29:00.053Z,10.70
2022-11-18T11:31:35.532Z,10.60
2022-11-18T11:34:12.869Z,10.60
2022-11-18T11:36:48.509Z,10.60
2022-11-18T11:42:08.132Z,10.60
2022-11-18T11:44:55.820Z,10.70
2022-11-18T11:47:50.933Z,10.70
2022-11-18T11:50:24.812Z,10.70
2022-11-18T11:53:15.828Z,10.80
2022-11-18T11:55:58.008Z,10.90
2022-11-18T11:58:54.993Z,8.40
2022-11-18T12:01:35.337Z,11.00
2022-11-18T12:04:14.255Z,11.30
2022-11-18T12:09:18.170Z,11.60
2022-11-18T12:11:54.694Z,11.60
2022-11-18T12:14:35.832Z,11.60
2022-11-18T12:17:17.427Z,11.60
2022-11-18T12:19:47.988Z,11.50
2022-11-18T12:24:46.720Z,11.50
2022-11-18T12:30:00.028Z,11.70
2022-11-18T12:35:36.664Z,12.10
2022-11-18T12:40:52.664Z,12.30
2022-11-18T12:43:59.081Z,12.10
2022-11-18T12:50:11.523Z,12.00
2022-11-18T12:55:42.991Z,11.90
2022-11-18T12:58:29.368Z,11.80
2022-11-18T13:01:11.893Z,11.80
2022-11-18T13:17:47.820Z,12.20
2022-11-18T13:23:17.139Z,12.10
2022-11-18T13:26:05.767Z,12.20
2022-11-18T13:28:49.516Z,12.20
2022-11-18T13:31:31.029Z,12.10
2022-11-18T13:39:23.435Z,11.90
2022-11-18T13:50:21.342Z,11.70
2022-11-18T13:55:38.576Z,11.70
2022-11-18T13:58:40.157Z,11.80
2022-11-18T14:01:20.724Z,11.70
2022-11-18T14:03:53.217Z,11.80
2022-11-18T14:09:07.553Z,11.80
2022-11-18T14:11:38.415Z,11.90
2022-11-18T14:19:34.055Z,11.40
2022-11-18T14:22:12.767Z,11.30
2022-11-18T14:24:44.119Z,11.20
2022-11-18T14:27:37.466Z,11.10
2022-11-18T14:30:35.844Z,11.10
2022-11-18T14:33:16.819Z,11.00
2022-11-18T14:38:44.044Z,11.00
2022-11-18T14:41:43.875Z,10.90
2022-11-18T14:46:47.978Z,10.70
2022-11-18T14:49:22.626Z,10.80
2022-11-18T14:54:27.471Z,10.70
2022-11-18T15:02:01.491Z,10.60
2022-11-18T15:07:00.193Z,10.50
2022-11-18T15:09:32.587Z,10.40
2022-11-18T15:17:06.475Z,10.30
2022-11-18T15:19:37.363Z,10.30
2022-11-18T15:22:14.595Z,10.30
2022-11-18T15:24:45.529Z,10.30
2022-11-18T15:34:48.536Z,10.30
2022-11-18T15:37:17.477Z,10.20
2022-11-18T15:39:45.978Z,10.20
2022-11-18T15:44:50.867Z,10.20
2022-11-18T15:47:20.861Z,10.30
2022-11-18T15:49:49.237Z,10.10
2022-11-18T15:52:19.069Z,10.10
2022-11-18T16:04:57.494Z,10.00
2022-11-18T16:10:24.787Z,10.00
2022-11-18T16:12:53.077Z,10.00
2022-11-18T16:15:38.745Z,10.10
2022-11-18T16:20:43.148Z,10.20
2022-11-18T16:23:11.388Z,10.20
2022-11-18T16:30:59.948Z,10.20
2022-11-18T16:33:29.947Z,10.00
2022-11-18T16:36:00.474Z,10.00
2022-11-18T16:38:30.318Z,9.90
2022-11-18T16:40:59.260Z,9.90
2022-11-18T16:43:27.791Z,9.70
2022-11-18T16:48:27.572Z,9.80
2022-11-18T16:51:19.151Z,9.80
2022-11-18T16:53:52.958Z,9.90
2022-11-18T16:58:50.617Z,9.90
2022-11-18T17:04:01.355Z,9.70
2022-11-18T17:06:32.816Z,9.70
2022-11-18T17:11:30.137Z,9.80
2022-11-18T17:16:30.558Z,10.00
2022-11-18T17:19:03.792Z,10.00
2022-11-18T17:24:07.860Z,10.10
2022-11-18T17:31:46.066Z,10.00
2022-11-18T17:34:16.579Z,10.00
2022-11-18T17:39:22.111Z,10.00
2022-11-18T17:42:10.516Z,10.30
2022-11-18T17:59:39.756Z,9.30
2022-11-18T18:02:08.405Z,9.10
2022-11-18T18:04:39.091Z,9.20
2022-11-18T18:12:30.057Z,9.50
2022-11-18T18:14:58.575Z,9.50
2022-11-18T18:24:54.241Z,9.60
2022-11-18T18:27:22.522Z,9.70
2022-11-18T18:29:53.888Z,9.70
2022-11-18T18:32:24.432Z,9.80
2022-11-18T18:45:13.347Z,9.30
2022-11-18T18:55:13.242Z,9.10
2022-11-18T18:57:44.052Z,9.00
2022-11-18T19:00:15.983Z,9.00
2022-11-18T19:05:15.583Z,8.70
2022-11-18T19:07:49.553Z,8.60
2022-11-18T19:10:21.597Z,8.60
2022-11-18T19:15:23.407Z,8.50
2022-11-18T19:20:36.922Z,8.50
2022-11-18T19:23:10.299Z,8.50
2022-11-18T19:25:40.250Z,8.40
2022-11-18T19:28:11.467Z,8.50
2022-11-18T19:33:11.552Z,8.60
2022-11-18T19:43:10.658Z,8.70
2022-11-18T19:45:39.003Z,8.80
2022-11-18T19:48:07.388Z,8.90
2022-11-18T19:50:35.910Z,9.00
2022-11-18T19:53:24.078Z,9.10
2022-11-18T19:55:56.892Z,9.40
2022-11-18T19:58:27.229Z,9.40
2022-11-18T20:00:56.214Z,9.30
2022-11-18T20:03:24.541Z,9.20
2022-11-18T20:05:52.771Z,9.30
2022-11-18T20:08:26.578Z,9.20
2022-11-18T20:10:55.096Z,8.80
2022-11-18T20:16:01.821Z,8.50
2022-11-18T20:18:31.193Z,8.30
2022-11-18T20:21:06.267Z,8.20
2022-11-18T20:26:04.736Z,8.40
2022-11-18T20:28:36.759Z,7.60
2022-11-18T20:31:05.553Z,8.50
2022-11-18T20:33:35.380Z,8.40
2022-11-18T20:36:09.324Z,8.40
2022-11-18T20:38:37.972Z,8.30
2022-11-18T20:41:08.122Z,8.30
2022-11-18T20:43:40.474Z,8.20
2022-11-18T20:48:39.428Z,8.70
2022-11-18T20:51:09.858Z,8.80
2022-11-18T20:53:42.001Z,8.90
2022-11-18T20:56:12.834Z,9.10
2022-11-18T20:58:43.062Z,9.40
2022-11-18T21:01:12.608Z,9.10
2022-11-18T21:03:42.309Z,9.10
2022-11-18T21:06:14.427Z,8.80
2022-11-18T21:08:43.708Z,8.80
2022-11-18T21:11:13.598Z,8.80
2022-11-18T21:14:01.295Z,8.80
2022-11-18T21:16:29.984Z,8.80
2022-11-18T21:18:58.288Z,8.80
2022-11-18T21:21:44.385Z,8.60
2022-11-18T21:24:16.804Z,8.50
2022-11-18T21:26:47.298Z,8.50
2022-11-18T21:29:19.303Z,8.40
2022-11-18T21:31:48.475Z,8.50
2022-11-18T21:34:18.004Z,8.60
2022-11-18T21:36:54.262Z,8.60
2022-11-18T21:39:24.145Z,8.70
2022-11-18T21:41:56.125Z,8.80
2022-11-18T21:44:28.824Z,8.70
2022-11-18T21:49:26.317Z,8.70
2022-11-18T21:52:00.198Z,8.80
2022-11-18T21:54:28.489Z,8.80
2022-11-18T21:56:56.928Z,8.80
2022-11-18T21:59:25.281Z,8.70
2022-11-18T22:01:54.971Z,8.70
2022-11-18T22:04:37.189Z,8.90
2022-11-18T22:07:09.471Z,8.90
2022-11-18T22:09:38.378Z,8.90
2022-11-18T22:12:08.146Z,9.10
2022-11-18T22:14:38.630Z,9.20
2022-11-18T22:17:08.983Z,9.20
2022-11-18T22:22:06.233Z,9.20
2022-11-18T22:24:34.564Z,9.20
2022-11-18T22:27:08.383Z,9.20
2022-11-18T22:29:43.776Z,9.20
2022-11-18T22:32:13.674Z,9.30
2022-11-18T22:34:42.010Z,9.20
2022-11-18T22:37:10.470Z,9.20
2022-11-18T22:39:39.075Z,9.20
2022-11-18T22:42:24.662Z,9.20
2022-11-18T22:44:52.989Z,9.30
2022-11-18T22:47:26.315Z,9.20
2022-11-18T22:49:56.577Z,9.30
2022-11-18T22:52:27.314Z,9.10
2022-11-18T22:54:55.796Z,9.10
2022-11-18T22:57:24.428Z,9.20
2022-11-18T23:02:28.762Z,9.10
2022-11-18T23:04:59.757Z,8.90
2022-11-18T23:07:28.435Z,8.70
2022-11-18T23:10:00.456Z,8.60
2022-11-18T23:12:47.771Z,8.60
2022-11-18T23:15:16.410Z,8.90
2022-11-18T23:17:45.965Z,9.00
2022-11-18T23:20:14.248Z,9.10
2022-11-18T23:22:42.665Z,9.10
2022-11-18T23:25:11.154Z,8.90
2022-11-18T23:27:39.488Z,8.80
2022-11-18T23:30:10.834Z,9.00
2022-11-18T23:32:39.059Z,9.10
2022-11-18T23:35:09.433Z,9.00
2022-11-18T23:37:37.676Z,9.00
2022-11-18T23:40:06.724Z,9.00
2022-11-18T23:42:34.997Z,9.10
2022-11-18T23:45:05.386Z,9.20
2022-11-18T23:47:33.986Z,9.20
2022-11-18T23:50:02.678Z,9.40
2022-11-18T23:52:34.809Z,9.10
2022-11-18T23:55:03.149Z,9.00
2022-11-18T23:57:31.388Z,9.00
2022-11-18T23:59:59.601Z,8.80
